• Join FlightAware (Why Join?)
  • Login
  • US Flag 
04:33AM EDT


 

Airport Tracker/Info


-or-


 

Live Flight TrackerFlight Track Log ✈ N601AA ✈ 11-Jun-2014 ✈ KSEA - KGEG

Flight Track Log - Related Links

Times and Time Zones

All times are in EDT time to prevent confusion due to time zone crossing. See the N601AA flight status page for this flight to view local times or setup timezone preferences in your user account.

Time Position Orientation Groundspeed Altitude Reporting Facility
EDT Latitude Longitude Course Direction KTS MPH feet Rate Location/Type
12:41PM 47.3839 -122.3092 177° South 278 320 3,400  Level Seattle Center
12:42PM 47.3353 -122.3092 180° South 295 339 4,700 2,880 Climbing Seattle Center
12:43PM 47.2967 -122.2275 125° Southeast 267 307 8,200 3,480 Climbing Seattle Center
12:44PM 47.3336 -122.1164 64° Northeast 281 323 11,900 2,940 Climbing Seattle Center
12:45PM 47.3806 -121.9972 60° Northeast 343 395 14,200 2,160 Climbing Seattle Center
12:46PM 47.4333 -121.8531 62° Northeast 400 460 16,300 1,920 Climbing Seattle Center
12:47PM 47.4883 -121.7025 62° Northeast 425 489 18,200 2,280 Climbing Seattle Center
12:48PM 47.5503 -121.5489 59° Northeast 433 498 21,000 1,320 Climbing Seattle Center
12:49PM 47.5550 -121.3567 88° East 472 543 21,000  Level Seattle Center
12:50PM 47.5517 -121.1469 91° East 498 573 21,000  Level Seattle Center
12:51PM 47.5500 -120.9372 91° East 512 589 21,000  Level Seattle Center
12:52PM 47.5439 -120.7128 92° East 486 559 21,000  Level Seattle Center
12:53PM 47.5400 -120.5158 92° East 483 556 21,000  Level Seattle Center
12:54PM 47.5350 -120.3231 92° East 475 547 21,000  Level Seattle Center
12:55PM 47.5247 -120.1308 94° East 474 545 21,000  Level Seattle Center
12:56PM 47.5164 -119.9386 94° East 473 544 21,000  Level Seattle Center
12:57PM 47.5053 -119.7467 95° East 472 543 21,000  Level Seattle Center
12:58PM 47.4969 -119.5461 93° East 486 559 21,000  Level Seattle Center
12:59PM 47.4842 -119.3039 94° East 492 566 21,000  Level Seattle Center
01:00PM 47.4742 -119.1028 94° East 492 566 21,000 -660 Level Seattle Center
01:01PM 47.4606 -118.9022 96° East 492 566 19,700 -1,680 Descending Seattle Center
01:02PM 47.4478 -118.6992 95° East 460 529 17,600 -1,920 Descending Seattle Center
01:03PM 47.4369 -118.5256 95° East 426 490 15,800 -2,220 Descending Seattle Center
01:04PM 47.4275 -118.3533 95° East 417 480 13,200 -1,380 Descending Seattle Center
01:05PM 47.4189 -118.2158 95° East 334 384 13,000 -180 Descending Seattle Center
01:06PM 47.4119 -118.0842 94° East 324 373 12,900 -1,320 Descending Seattle Center
01:07PM 47.4031 -117.9456 95° East 319 367 10,400 -2,220 Descending Seattle Center
01:08PM 47.4122 -117.8353 83° East 277 319 8,400 -1,620 Descending Seattle Center
01:09PM 47.4519 -117.7786 44° Northeast 195 224 7,200 -1,200 Descending Seattle Center
01:10PM 47.4842 -117.7419 38° Northeast 152 175 6,000 -900 Descending Seattle Center
01:11PM 47.5153 -117.6925 47° Northeast 162 186 5,400 -960 Descending Seattle Center
01:12PM 47.5486 -117.6428 45° Northeast 162 186 4,100 -1,020 Descending Seattle Center
01:13PM 47.5769 -117.6003 45° Northeast 152 175 3,400 -840 Descending Seattle Center
01:14PM 47.6058 -117.5572 45° Northeast 151 174 2,500 -600 Descending Seattle Center
01:16PM 47.6261 -117.5286 44° Northeast 124 143 2,300 -240 Descending Seattle Center